Air Resources Laboratory banner image
Air Resources Laboratory web site National Oceanic and Atmospheric Administration (NOAA)

ne metar


KAIA 222253Z AUTO 13013G17KT 10SM CLR 29/14 A3000 RMK AO2 SLP116 T02890144=
KANW 222255Z AUTO 35008KT 10SM CLR 27/15 A2997 RMK AO2 T02680148 TSNO=
KBFF 222253Z AUTO 12008KT 10SM CLR 32/10 A2999 RMK AO2 SLP109 T03220100=
KBIE 222255Z AUTO 34014KT 10SM CLR 31/22 A2984 RMK AO2 T03060223=
KCDR 222253Z AUTO 12009KT 10SM CLR 31/13 A2993 RMK AO2 SLP113 T03110133 $=
KEAR 222256Z AUTO 33012KT 10SM CLR 29/18 A2994 RMK AO2 SLP117 T02940183=
KFET 222255Z AUTO 33010KT 10SM SCT031 BKN046 28/21 A2986 RMK AO2 T02790206=
KFNB 222253Z AUTO 27005KT 10SM BKN060 OVC075 33/24 A2977 RMK AO2 SLP069
 T03280244=
KGRI 222253Z 34012G24KT 10SM CLR 31/19 A2991 RMK AO2 SLP114 T03060194 $=
KHSI 222253Z AUTO 33008KT 10SM CLR 28/19 A2992 RMK AO2 SLP114 T02780194=
KIML 222253Z AUTO 33005KT 10SM CLR 33/11 A3000 RMK AO2 SLP122 T03280111=
KLBF 222253Z AUTO 30003KT 10SM CLR 30/18 A2998 RMK AO2 SLP121 T03000183 $=
KLNK 222254Z 34013KT 10SM CLR 30/21 A2986 RMK AO2 SLP098 T03000206=
KMCK 222253Z AUTO 36005KT 10SM CLR 32/16 A2997 RMK AO2 SLP121 T03170161=
KODX 222253Z AUTO 35010KT 10SM CLR 28/19 A2991 RMK AO2 SLP117 T02830194=
KOFF 222255Z 34016KT 10SM FEW028 SCT039 BKN055 30/22 A2981 RMK AO2A SLP087
 T02970221 $=
KOFK 222256Z AUTO 34011G22KT 10SM CLR 28/18 A2988 RMK AO2 PK WND 32026/2221
 SLP106 T02780183=
KOLU 222256Z AUTO 33015KT 10SM SCT042 29/19 A2988 RMK AO2 SLP108 T02890194=
KOMA 222252Z 33010KT 10SM SCT029 BKN039 BKN180 27/22 A2983 RMK AO2 SLP091
 T02720217=
KSNY 222253Z AUTO 14008KT 10SM CLR 31/08 A3004 RMK AO2 SLP118 T03110078=
KTQE 222254Z AUTO 32013KT 10SM FEW033 BKN050 28/22 A2983 RMK AO2 SLP087
 T02780217=
KVTN 222252Z AUTO 36006KT 10SM CLR 29/15 A2997 RMK AO2 SLP126 T02890150=